createdAt,value
2018-12-15T00:01:04.304Z,15.65
2018-12-15T00:03:34.491Z,17.42
2018-12-15T00:06:04.963Z,15.63
2018-12-15T00:08:33.600Z,17.07
2018-12-15T00:11:04.582Z,17.00
2018-12-15T00:13:33.708Z,17.10
2018-12-15T00:16:04.614Z,16.00
2018-12-15T00:18:34.098Z,16.85
2018-12-15T00:21:04.699Z,17.25
2018-12-15T00:23:33.038Z,17.00
2018-12-15T00:26:03.936Z,17.45
2018-12-15T00:28:33.050Z,17.10
2018-12-15T00:31:03.950Z,16.48
2018-12-15T00:33:32.561Z,16.67
2018-12-15T00:36:03.382Z,18.67
2018-12-15T00:38:32.877Z,17.00
2018-12-15T00:41:02.758Z,15.80
2018-12-15T00:43:31.352Z,16.45
2018-12-15T00:46:01.311Z,16.30
2018-12-15T00:48:30.681Z,17.73
2018-12-15T00:50:59.137Z,16.80
2018-12-15T00:53:27.615Z,16.50
2018-12-15T00:55:57.265Z,15.95
2018-12-15T00:58:26.362Z,16.30
2018-12-15T01:00:55.930Z,17.55
2018-12-15T01:03:25.255Z,15.55
2018-12-15T01:05:53.658Z,16.62
2018-12-15T01:08:22.199Z,16.97
2018-12-15T01:10:50.718Z,17.02
2018-12-15T01:13:21.216Z,17.90
2018-12-15T01:15:49.840Z,18.42
2018-12-15T01:18:18.472Z,14.68
2018-12-15T01:20:48.308Z,16.27
2018-12-15T01:23:19.157Z,14.98
2018-12-15T01:25:48.153Z,15.93
2018-12-15T01:28:17.104Z,16.27
2018-12-15T01:30:46.158Z,16.62
2018-12-15T01:33:16.077Z,16.93
2018-12-15T01:35:44.687Z,17.92
2018-12-15T01:38:14.222Z,16.45
2018-12-15T01:40:42.804Z,16.62
2018-12-15T01:43:12.475Z,17.75
2018-12-15T01:45:41.024Z,15.35
2018-12-15T01:48:09.618Z,15.78
2018-12-15T01:50:38.120Z,16.62
2018-12-15T01:53:07.273Z,17.73
2018-12-15T01:55:35.630Z,18.95
2018-12-15T01:58:04.078Z,18.25
2018-12-15T02:00:33.834Z,16.80
2018-12-15T02:03:03.333Z,17.65
2018-12-15T02:05:31.896Z,17.07
2018-12-15T02:08:00.477Z,18.00
2018-12-15T02:10:29.107Z,17.87
2018-12-15T02:12:57.744Z,16.90
2018-12-15T02:15:26.288Z,18.02
2018-12-15T02:17:54.908Z,16.07
2018-12-15T02:20:23.501Z,19.30
2018-12-15T02:22:52.101Z,16.77
2018-12-15T02:25:20.528Z,16.77
2018-12-15T02:27:49.128Z,16.30
2018-12-15T02:30:17.670Z,17.12
2018-12-15T02:32:47.049Z,16.30
2018-12-15T02:35:16.247Z,16.37
2018-12-15T02:37:46.130Z,16.00
2018-12-15T02:40:14.755Z,18.02
2018-12-15T02:42:43.422Z,17.07
2018-12-15T02:45:13.641Z,16.05
2018-12-15T02:47:42.201Z,23.22
2018-12-15T02:50:11.954Z,16.97
2018-12-15T02:52:41.687Z,16.95
2018-12-15T02:55:10.335Z,18.62
2018-12-15T02:57:38.916Z,19.05
2018-12-15T03:00:07.574Z,16.32
2018-12-15T03:02:37.451Z,17.82
2018-12-15T03:05:06.076Z,15.98
2018-12-15T03:07:34.894Z,17.65
2018-12-15T03:10:05.025Z,17.37
2018-12-15T03:12:35.237Z,16.37
2018-12-15T03:15:03.837Z,17.07
2018-12-15T03:17:32.939Z,18.07
2018-12-15T03:20:02.062Z,17.87
2018-12-15T03:22:30.697Z,16.30
2018-12-15T03:24:59.654Z,16.15
2018-12-15T03:27:28.106Z,17.73
2018-12-15T03:29:56.685Z,17.40
2018-12-15T03:32:25.256Z,17.00
2018-12-15T03:34:53.918Z,16.97
2018-12-15T03:37:23.624Z,18.77
2018-12-15T03:39:52.231Z,17.42
2018-12-15T03:42:21.499Z,17.95
2018-12-15T03:44:50.626Z,16.87
2018-12-15T03:47:19.228Z,17.75
2018-12-15T03:49:48.039Z,20.17
2018-12-15T03:52:16.909Z,17.00
2018-12-15T03:54:46.356Z,17.48
2018-12-15T03:57:15.456Z,18.20
2018-12-15T03:59:45.515Z,18.67
2018-12-15T04:02:14.972Z,16.82
2018-12-15T04:04:44.492Z,17.52
2018-12-15T04:07:14.529Z,16.95
2018-12-15T04:09:43.526Z,17.12
2018-12-15T04:12:12.299Z,18.10
2018-12-15T04:14:40.891Z,18.35
2018-12-15T04:17:09.502Z,18.10
2018-12-15T04:19:38.076Z,18.27
2018-12-15T04:22:16.680Z,17.90
2018-12-15T04:24:45.249Z,17.82
2018-12-15T04:27:13.865Z,17.40
2018-12-15T04:29:42.421Z,18.15
2018-12-15T04:32:11.007Z,17.52
2018-12-15T04:34:40.938Z,19.02
2018-12-15T04:37:09.511Z,17.12
2018-12-15T04:39:39.408Z,18.27
2018-12-15T04:42:07.977Z,17.62
2018-12-15T04:44:36.579Z,18.07
2018-12-15T04:47:05.245Z,19.92
2018-12-15T04:49:33.864Z,19.62
2018-12-15T04:52:03.334Z,18.30
2018-12-15T04:54:31.918Z,20.60
2018-12-15T04:57:00.541Z,20.55
2018-12-15T04:59:29.092Z,19.25
2018-12-15T05:01:58.030Z,19.87
2018-12-15T05:04:27.054Z,19.82
2018-12-15T05:06:55.648Z,21.25
2018-12-15T05:09:26.065Z,18.75
2018-12-15T05:11:56.081Z,18.65
2018-12-15T05:14:25.316Z,19.48
2018-12-15T05:16:55.575Z,17.98
2018-12-15T05:19:24.672Z,18.07
2018-12-15T05:21:54.913Z,18.02
2018-12-15T05:24:25.006Z,18.65
2018-12-15T05:26:55.083Z,17.55
2018-12-15T05:29:26.192Z,18.98
2018-12-15T05:31:55.120Z,17.67
2018-12-15T05:34:25.230Z,19.17
2018-12-15T05:36:54.584Z,18.35
2018-12-15T05:39:23.939Z,19.75
2018-12-15T05:41:54.581Z,18.45
2018-12-15T05:44:23.212Z,17.62
2018-12-15T05:46:51.829Z,16.57
2018-12-15T05:49:20.399Z,19.15
2018-12-15T05:51:49.017Z,21.82
2018-12-15T05:54:18.756Z,24.55
2018-12-15T05:56:48.690Z,18.40
2018-12-15T05:59:18.787Z,24.05
2018-12-15T06:01:49.048Z,27.22
2018-12-15T06:04:18.840Z,21.12
2018-12-15T06:06:48.847Z,24.07
2018-12-15T06:09:17.439Z,23.55
2018-12-15T06:11:47.557Z,18.65
2018-12-15T06:14:16.071Z,24.43
2018-12-15T06:16:45.383Z,27.02
2018-12-15T06:19:15.804Z,23.70
2018-12-15T06:21:45.957Z,25.70
2018-12-15T06:24:15.913Z,21.85
2018-12-15T06:26:44.530Z,24.18
2018-12-15T06:29:13.128Z,25.25
2018-12-15T06:31:42.340Z,20.88
2018-12-15T06:34:12.475Z,24.15
2018-12-15T06:36:41.078Z,20.27
2018-12-15T06:39:09.831Z,23.20
2018-12-15T06:41:40.135Z,22.82
2018-12-15T06:44:08.755Z,21.40
2018-12-15T06:46:37.355Z,25.02
2018-12-15T06:49:06.091Z,34.63
2018-12-15T06:51:35.026Z,35.38
2018-12-15T06:54:03.658Z,43.40
2018-12-15T06:56:33.195Z,43.00
2018-12-15T06:59:01.725Z,52.93
2018-12-15T07:01:30.362Z,54.70
2018-12-15T07:03:59.976Z,51.60
2018-12-15T07:06:30.230Z,55.33
2018-12-15T07:08:59.677Z,54.20
2018-12-15T07:11:28.966Z,53.70
2018-12-15T07:13:57.707Z,54.98
2018-12-15T07:16:26.940Z,50.58
2018-12-15T07:18:55.961Z,51.30
2018-12-15T07:21:25.284Z,52.10
2018-12-15T07:23:53.922Z,54.40
2018-12-15T07:26:23.583Z,48.00
2018-12-15T07:28:52.396Z,49.23
2018-12-15T07:31:21.633Z,51.08
2018-12-15T07:33:51.002Z,55.08
2018-12-15T07:36:19.540Z,49.15
2018-12-15T07:38:48.900Z,49.08
2018-12-15T07:41:17.942Z,48.02
2018-12-15T07:43:46.582Z,46.65
2018-12-15T07:46:16.695Z,51.00
2018-12-15T07:48:51.282Z,47.85
2018-12-15T07:51:17.121Z,50.63
2018-12-15T07:53:46.217Z,47.43
2018-12-15T07:56:15.970Z,46.65
2018-12-15T07:58:45.841Z,43.05
2018-12-15T08:01:15.411Z,44.50
2018-12-15T08:03:44.768Z,49.00
2018-12-15T08:06:13.554Z,49.63
2018-12-15T08:08:42.061Z,44.40
2018-12-15T08:11:16.501Z,40.52
2018-12-15T08:13:48.409Z,43.28
2018-12-15T08:16:17.131Z,41.83
2018-12-15T08:18:45.788Z,40.63
2018-12-15T08:21:14.517Z,39.00
2018-12-15T08:23:43.225Z,44.18
2018-12-15T08:26:12.315Z,39.15
2018-12-15T08:28:40.934Z,44.05
2018-12-15T08:31:11.549Z,43.75
2018-12-15T08:33:40.239Z,41.10
2018-12-15T08:36:08.861Z,43.02
2018-12-15T08:38:38.628Z,41.37
2018-12-15T08:41:07.316Z,42.70
2018-12-15T08:43:35.932Z,38.45
2018-12-15T08:46:06.278Z,42.23
2018-12-15T08:48:34.862Z,38.65
2018-12-15T08:51:04.139Z,39.42
2018-12-15T08:53:32.803Z,38.75
2018-12-15T08:56:03.301Z,39.80
2018-12-15T08:58:32.133Z,37.60
2018-12-15T09:01:00.793Z,39.27
2018-12-15T09:03:29.677Z,38.38
2018-12-15T09:05:59.167Z,40.40
2018-12-15T09:08:28.098Z,37.30
2018-12-15T09:10:56.829Z,36.23
2018-12-15T09:13:25.551Z,35.83
2018-12-15T09:15:54.869Z,35.00
2018-12-15T09:18:23.624Z,40.08
2018-12-15T09:20:52.328Z,35.43
2018-12-15T09:23:21.000Z,36.63
2018-12-15T09:25:49.742Z,34.15
2018-12-15T09:28:18.503Z,38.25
2018-12-15T09:30:47.284Z,34.50
2018-12-15T09:33:15.985Z,35.92
2018-12-15T09:35:45.010Z,31.55
2018-12-15T09:38:14.861Z,33.45
2018-12-15T09:40:44.378Z,36.88
2018-12-15T09:43:13.162Z,33.88
2018-12-15T09:45:43.204Z,31.50
2018-12-15T09:48:13.850Z,33.92
2018-12-15T09:50:44.067Z,31.42
2018-12-15T09:53:13.464Z,31.55
2018-12-15T09:55:43.382Z,31.82
2018-12-15T09:58:13.914Z,32.73
2018-12-15T10:00:42.703Z,31.55
2018-12-15T10:03:11.752Z,29.90
2018-12-15T10:05:40.436Z,29.87
2018-12-15T10:08:09.407Z,32.30
2018-12-15T10:10:38.238Z,33.02
2018-12-15T10:13:06.917Z,32.20
2018-12-15T10:15:35.613Z,30.90
2018-12-15T10:18:05.736Z,29.75
2018-12-15T10:20:35.216Z,29.42
2018-12-15T10:23:04.219Z,29.42
2018-12-15T10:25:47.500Z,29.85
2018-12-15T10:28:16.406Z,29.42
2018-12-15T10:31:49.182Z,30.30
2018-12-15T10:34:17.975Z,33.42
2018-12-15T10:36:46.683Z,28.77
2018-12-15T10:39:15.512Z,28.40
2018-12-15T10:41:44.280Z,29.57
2018-12-15T10:44:13.124Z,26.27
2018-12-15T10:46:42.496Z,27.50
2018-12-15T10:49:10.982Z,29.55
2018-12-15T10:51:40.003Z,28.50
2018-12-15T10:54:08.524Z,24.47
2018-12-15T10:56:37.646Z,25.52
2018-12-15T10:59:07.281Z,24.50
2018-12-15T11:01:36.161Z,25.88
2018-12-15T11:04:05.198Z,26.05
2018-12-15T11:06:33.843Z,27.02
2018-12-15T11:09:02.563Z,24.98
2018-12-15T11:11:31.291Z,28.98
2018-12-15T11:13:59.891Z,26.33
2018-12-15T11:16:28.637Z,28.95
2018-12-15T11:18:57.325Z,25.77
2018-12-15T11:21:26.080Z,24.18
2018-12-15T11:23:54.837Z,25.12
2018-12-15T11:26:23.519Z,27.65
2018-12-15T11:28:52.247Z,27.98
2018-12-15T11:31:21.034Z,28.45
2018-12-15T11:33:49.818Z,25.72
2018-12-15T11:36:18.571Z,24.50
2018-12-15T11:38:47.358Z,24.92
2018-12-15T11:41:16.157Z,24.43
2018-12-15T11:43:45.583Z,24.35
2018-12-15T11:46:15.652Z,27.90
2018-12-15T11:48:45.703Z,23.98
2018-12-15T11:51:16.624Z,22.45
2018-12-15T11:53:47.345Z,28.20
2018-12-15T11:56:19.709Z,25.25
2018-12-15T11:58:51.694Z,27.70
2018-12-15T12:01:20.420Z,21.50
2018-12-15T12:03:50.152Z,21.27
2018-12-15T12:06:20.192Z,21.77
2018-12-15T12:08:49.257Z,25.15
2018-12-15T12:11:18.193Z,21.77
2018-12-15T12:13:47.388Z,22.15
2018-12-15T12:16:16.267Z,23.12
2018-12-15T12:18:47.058Z,20.43
2018-12-15T12:21:15.740Z,18.70
2018-12-15T12:23:44.692Z,23.07
2018-12-15T12:26:13.684Z,21.42
2018-12-15T12:28:42.340Z,22.40
2018-12-15T12:31:11.045Z,19.92
2018-12-15T12:33:39.738Z,23.00
2018-12-15T12:36:08.536Z,20.50
2018-12-15T12:38:37.401Z,20.37
2018-12-15T12:41:06.562Z,19.20
2018-12-15T12:43:35.391Z,22.02
2018-12-15T12:46:04.244Z,19.42
2018-12-15T12:48:33.562Z,20.97
2018-12-15T12:51:03.290Z,22.32
2018-12-15T12:53:33.425Z,22.13
2018-12-15T12:56:03.944Z,19.87
2018-12-15T12:58:33.897Z,19.42
2018-12-15T13:01:03.010Z,18.45
2018-12-15T13:03:32.430Z,18.67
2018-12-15T13:06:01.079Z,20.02
2018-12-15T13:08:31.193Z,20.17
2018-12-15T13:10:59.808Z,21.40
2018-12-15T13:13:29.198Z,22.48
2018-12-15T13:15:59.269Z,18.15
2018-12-15T13:18:29.222Z,19.20
2018-12-15T13:20:57.930Z,22.35
2018-12-15T13:23:26.899Z,17.98
2018-12-15T13:25:55.644Z,18.82
2018-12-15T13:28:24.399Z,18.07
2018-12-15T13:30:53.141Z,20.65
2018-12-15T13:33:32.434Z,20.15
2018-12-15T13:36:01.781Z,17.87
2018-12-15T13:38:32.141Z,17.77
2018-12-15T13:41:00.743Z,17.25
2018-12-15T13:43:29.336Z,19.73
2018-12-15T13:45:58.062Z,19.87
2018-12-15T13:48:26.651Z,19.12
2018-12-15T13:50:55.165Z,17.30
2018-12-15T13:53:23.914Z,18.52
2018-12-15T13:55:54.175Z,18.17
2018-12-15T13:58:24.246Z,17.00
2018-12-15T14:00:52.917Z,16.80
2018-12-15T14:03:22.334Z,18.50
2018-12-15T14:05:50.954Z,17.25
2018-12-15T14:08:19.823Z,18.32
2018-12-15T14:10:48.471Z,19.42
2018-12-15T14:13:17.070Z,17.15
2018-12-15T14:15:46.966Z,18.55
2018-12-15T14:18:15.834Z,18.42
2018-12-15T14:20:44.927Z,17.02
2018-12-15T14:23:14.012Z,18.23
2018-12-15T14:25:42.811Z,22.00
2018-12-15T14:28:13.476Z,16.80
2018-12-15T14:30:42.647Z,19.65
2018-12-15T14:33:11.806Z,20.50
2018-12-15T14:35:42.390Z,18.20
2018-12-15T14:38:11.435Z,18.87
2018-12-15T14:40:41.133Z,24.00
2018-12-15T14:43:10.260Z,18.23
2018-12-15T14:45:39.199Z,17.48
2018-12-15T14:48:07.951Z,17.67
2018-12-15T14:50:37.912Z,19.52
2018-12-15T14:53:06.612Z,18.60
2018-12-15T14:55:35.455Z,20.55
2018-12-15T14:58:04.237Z,19.40
2018-12-15T15:00:32.963Z,17.70
2018-12-15T15:03:01.987Z,22.22
2018-12-15T15:05:30.622Z,17.77
2018-12-15T15:07:59.168Z,18.15
2018-12-15T15:10:28.150Z,22.13
2018-12-15T15:12:57.054Z,23.85
2018-12-15T15:15:26.015Z,20.60
2018-12-15T15:17:54.803Z,22.22
2018-12-15T15:20:29.659Z,18.35
2018-12-15T15:22:54.624Z,19.07
2018-12-15T15:25:23.647Z,18.87
2018-12-15T15:27:52.560Z,20.88
2018-12-15T15:30:21.289Z,21.25
2018-12-15T15:32:50.040Z,20.52
2018-12-15T15:35:19.585Z,18.40
2018-12-15T15:37:48.574Z,17.50
2018-12-15T15:40:17.630Z,19.80
2018-12-15T15:42:47.170Z,23.47
2018-12-15T15:45:16.531Z,20.95
2018-12-15T15:47:45.383Z,19.55
2018-12-15T15:50:14.395Z,21.27
2018-12-15T15:52:43.510Z,22.13
2018-12-15T15:55:12.294Z,21.02
2018-12-15T15:57:41.182Z,17.87
2018-12-15T16:00:10.730Z,19.50
2018-12-15T16:02:40.592Z,17.25
2018-12-15T16:05:10.111Z,20.77
2018-12-15T16:07:39.414Z,18.50
2018-12-15T16:10:10.070Z,22.27
2018-12-15T16:12:39.365Z,18.57
2018-12-15T16:15:09.524Z,19.02
2018-12-15T16:17:44.734Z,21.05
2018-12-15T16:20:13.508Z,21.70
2018-12-15T16:22:42.550Z,20.12
2018-12-15T16:25:11.664Z,20.85
2018-12-15T16:27:40.492Z,20.55
2018-12-15T16:30:12.093Z,20.48
2018-12-15T16:32:41.888Z,21.57
2018-12-15T16:35:11.297Z,21.68
2018-12-15T16:37:39.890Z,18.62
2018-12-15T16:40:09.516Z,22.27
2018-12-15T16:42:39.141Z,20.57
2018-12-15T16:45:09.544Z,21.33
2018-12-15T16:47:38.284Z,19.57
2018-12-15T16:50:08.517Z,22.42
2018-12-15T16:52:37.454Z,22.20
2018-12-15T16:55:06.790Z,19.20
2018-12-15T16:57:36.234Z,19.45
2018-12-15T17:00:07.724Z,19.65
2018-12-15T17:02:37.307Z,20.17
2018-12-15T17:05:07.056Z,21.20
2018-12-15T17:07:36.633Z,17.90
2018-12-15T17:10:06.973Z,19.37
2018-12-15T17:12:36.056Z,23.02
2018-12-15T17:15:05.801Z,20.72
2018-12-15T17:17:34.506Z,17.05
2018-12-15T17:20:03.500Z,19.75
2018-12-15T17:22:32.349Z,20.75
2018-12-15T17:25:01.562Z,25.50
2018-12-15T17:27:32.562Z,24.60
2018-12-15T17:30:02.277Z,19.30
2018-12-15T17:32:31.420Z,19.70
2018-12-15T17:35:00.288Z,19.32
2018-12-15T17:37:29.473Z,19.73
2018-12-15T17:39:58.481Z,21.42
2018-12-15T17:42:27.350Z,20.90
2018-12-15T17:44:56.436Z,22.00
2018-12-15T17:47:25.344Z,21.62
2018-12-15T17:49:54.128Z,18.15
2018-12-15T17:52:23.199Z,19.20
2018-12-15T17:54:51.914Z,19.20
2018-12-15T17:57:21.144Z,20.50
2018-12-15T17:59:50.061Z,19.40
2018-12-15T18:05:36.533Z,21.93
2018-12-15T18:08:05.431Z,19.32
2018-12-15T18:10:34.666Z,22.15
2018-12-15T18:13:03.496Z,21.75
2018-12-15T18:15:33.227Z,20.25
2018-12-15T18:18:02.220Z,22.15
2018-12-15T18:20:31.577Z,23.50
2018-12-15T18:23:00.747Z,18.07
2018-12-15T18:25:29.923Z,21.85
2018-12-15T18:27:58.678Z,19.20
2018-12-15T18:30:27.982Z,21.02
2018-12-15T18:32:57.895Z,22.73
2018-12-15T18:35:26.949Z,20.50
2018-12-15T18:37:56.019Z,19.62
2018-12-15T18:40:24.793Z,17.37
2018-12-15T18:42:53.754Z,18.50
2018-12-15T18:45:22.592Z,20.90
2018-12-15T18:47:51.675Z,19.23
2018-12-15T18:50:21.423Z,20.37
2018-12-15T18:52:52.662Z,20.40
2018-12-15T18:55:21.998Z,20.10
2018-12-15T18:57:50.891Z,20.52
2018-12-15T19:00:19.704Z,18.75
2018-12-15T19:02:48.386Z,19.82
2018-12-15T19:05:17.544Z,19.67
2018-12-15T19:07:46.559Z,19.32
2018-12-15T19:10:15.437Z,16.30
2018-12-15T19:12:44.804Z,15.88
2018-12-15T19:15:13.873Z,17.15
2018-12-15T19:17:43.180Z,15.72
2018-12-15T19:20:11.964Z,16.85
2018-12-15T19:22:41.097Z,16.65
2018-12-15T19:25:09.985Z,18.25
2018-12-15T19:27:38.904Z,17.73
2018-12-15T19:30:07.909Z,16.70
2018-12-15T19:32:36.813Z,17.70
2018-12-15T19:35:05.771Z,30.55
2018-12-15T19:37:35.187Z,19.35
2018-12-15T19:40:04.208Z,24.70
2018-12-15T19:42:33.519Z,16.87
2018-12-15T19:45:03.259Z,19.10
2018-12-15T19:47:34.565Z,16.75
2018-12-15T19:50:04.017Z,24.87
2018-12-15T19:52:33.425Z,24.57
2018-12-15T19:55:03.013Z,28.02
2018-12-15T19:57:33.543Z,33.70
2018-12-15T20:00:02.360Z,32.50
2018-12-15T20:02:33.684Z,33.42
2018-12-15T20:05:07.827Z,39.33
2018-12-15T20:07:42.106Z,32.30
2018-12-15T20:10:13.793Z,37.38
2018-12-15T20:12:43.539Z,36.38
2018-12-15T20:15:12.173Z,39.83
2018-12-15T20:17:41.892Z,39.08
2018-12-15T20:20:12.235Z,39.30
2018-12-15T20:22:42.457Z,40.83
2018-12-15T20:25:11.258Z,35.10
2018-12-15T20:27:40.392Z,32.83
2018-12-15T20:30:10.794Z,34.70
2018-12-15T20:32:40.432Z,33.65
2018-12-15T20:35:10.803Z,39.38
2018-12-15T20:37:40.098Z,32.05
2018-12-15T20:40:11.001Z,29.40
2018-12-15T20:42:42.694Z,30.27
2018-12-15T20:45:12.388Z,32.33
2018-12-15T20:47:43.633Z,27.98
2018-12-15T20:50:13.102Z,30.43
2018-12-15T20:52:47.525Z,30.82
2018-12-15T20:55:15.025Z,29.27
2018-12-15T20:57:45.244Z,26.90
2018-12-15T21:00:15.637Z,29.42
2018-12-15T21:02:45.890Z,32.33
2018-12-15T21:05:14.962Z,26.95
2018-12-15T21:07:44.952Z,29.02
2018-12-15T21:10:13.777Z,28.83
2018-12-15T21:12:42.583Z,25.75
2018-12-15T21:15:16.989Z,31.80
2018-12-15T21:17:46.993Z,28.75
2018-12-15T21:20:16.311Z,26.45
2018-12-15T21:22:46.230Z,26.23
2018-12-15T21:25:16.426Z,29.35
2018-12-15T21:27:45.397Z,26.62
2018-12-15T21:30:14.701Z,26.73
2018-12-15T21:32:45.037Z,27.10
2018-12-15T21:35:14.634Z,25.82
2018-12-15T21:37:43.846Z,24.82
2018-12-15T21:40:12.935Z,26.70
2018-12-15T21:42:42.612Z,24.75
2018-12-15T21:45:12.923Z,24.02
2018-12-15T21:47:42.761Z,24.63
2018-12-15T21:50:11.319Z,22.48
2018-12-15T21:52:41.289Z,21.27
2018-12-15T21:55:10.630Z,22.07
2018-12-15T21:57:39.366Z,23.62
2018-12-15T22:00:09.725Z,26.23
2018-12-15T22:02:38.338Z,24.27
2018-12-15T22:05:07.039Z,24.98
2018-12-15T22:07:35.745Z,24.87
2018-12-15T22:10:04.649Z,26.12
2018-12-15T22:12:33.797Z,21.42
2018-12-15T22:15:02.614Z,24.07
2018-12-15T22:17:32.213Z,22.77
2018-12-15T22:20:01.501Z,20.35
2018-12-15T22:22:31.633Z,21.37
2018-12-15T22:25:01.672Z,21.20
2018-12-15T22:27:30.276Z,20.52
2018-12-15T22:30:00.218Z,23.10
2018-12-15T22:32:28.984Z,20.52
2018-12-15T22:34:58.430Z,21.97
2018-12-15T22:37:28.525Z,21.42
2018-12-15T22:39:57.922Z,21.27
2018-12-15T22:42:27.859Z,23.40
2018-12-15T22:44:57.741Z,22.05
2018-12-15T22:47:28.269Z,18.75
2018-12-15T22:49:57.994Z,19.35
2018-12-15T22:52:26.655Z,18.62
2018-12-15T22:55:07.373Z,21.17
2018-12-15T22:57:36.894Z,21.82
2018-12-15T23:00:09.749Z,21.00
2018-12-15T23:02:40.198Z,20.65
2018-12-15T23:05:09.393Z,19.45
2018-12-15T23:07:38.331Z,18.32
2018-12-15T23:10:07.673Z,19.70
2018-12-15T23:12:37.047Z,20.97
2018-12-15T23:15:06.523Z,18.12
2018-12-15T23:17:36.488Z,19.48
2018-12-15T23:20:05.799Z,19.45
2018-12-15T23:22:34.348Z,21.05
2018-12-15T23:25:03.341Z,18.52
2018-12-15T23:27:33.412Z,18.77
2018-12-15T23:30:02.220Z,18.90
2018-12-15T23:32:32.323Z,18.48
2018-12-15T23:35:00.928Z,19.45
2018-12-15T23:37:31.769Z,20.12
2018-12-15T23:40:01.567Z,19.62
2018-12-15T23:42:31.689Z,18.52
2018-12-15T23:45:02.103Z,19.12
2018-12-15T23:47:30.766Z,20.52
2018-12-15T23:50:01.258Z,16.75
2018-12-15T23:52:30.051Z,17.73
2018-12-15T23:54:59.569Z,20.25
2018-12-15T23:57:28.815Z,17.75
2018-12-15T23:59:59.078Z,20.55
